createdAt,value
2019-03-08T00:00:00.807Z,38.92
2019-03-08T00:02:29.194Z,37.08
2019-03-08T00:04:57.894Z,38.40
2019-03-08T00:07:26.248Z,38.02
2019-03-08T00:09:55.318Z,33.48
2019-03-08T00:12:23.656Z,38.15
2019-03-08T00:14:52.123Z,40.50
2019-03-08T00:17:22.217Z,39.70
2019-03-08T00:19:50.686Z,34.90
2019-03-08T00:22:19.307Z,27.42
2019-03-08T00:24:47.860Z,34.95
2019-03-08T00:27:16.447Z,29.67
2019-03-08T00:29:44.745Z,37.85
2019-03-08T00:32:13.013Z,42.43
2019-03-08T00:34:41.303Z,41.70
2019-03-08T00:37:09.655Z,40.70
2019-03-08T00:39:38.082Z,47.30
2019-03-08T00:42:06.335Z,43.48
2019-03-08T00:44:34.592Z,33.45
2019-03-08T00:47:02.895Z,34.63
2019-03-08T00:49:31.216Z,38.75
2019-03-08T00:51:59.552Z,42.40
2019-03-08T00:54:28.203Z,37.17
2019-03-08T00:56:56.480Z,36.53
2019-03-08T00:59:24.758Z,40.08
2019-03-08T01:01:53.019Z,45.20
2019-03-08T01:04:21.293Z,44.55
2019-03-08T01:06:49.638Z,54.18
2019-03-08T01:09:18.271Z,49.20
2019-03-08T01:11:46.699Z,46.13
2019-03-08T01:14:15.027Z,53.02
2019-03-08T01:16:43.468Z,50.55
2019-03-08T01:19:11.796Z,45.92
2019-03-08T01:21:40.050Z,60.75
2019-03-08T01:24:08.724Z,44.70
2019-03-08T01:26:37.027Z,54.73
2019-03-08T01:29:05.343Z,54.42
2019-03-08T01:31:33.640Z,58.80
2019-03-08T01:34:01.944Z,48.45
2019-03-08T01:36:30.208Z,58.58
2019-03-08T01:38:58.743Z,59.33
2019-03-08T01:41:27.087Z,62.62
2019-03-08T01:43:55.419Z,62.20
2019-03-08T01:46:23.694Z,54.60
2019-03-08T01:48:51.983Z,64.65
2019-03-08T01:51:20.304Z,55.00
2019-03-08T01:53:48.577Z,62.98
2019-03-08T01:56:16.852Z,53.75
2019-03-08T01:58:45.167Z,57.08
2019-03-08T02:01:13.463Z,55.65
2019-03-08T02:03:41.789Z,45.12
2019-03-08T02:06:10.055Z,48.00
2019-03-08T02:08:38.397Z,50.50
2019-03-08T02:11:06.666Z,43.20
2019-03-08T02:13:34.999Z,43.45
2019-03-08T02:16:03.256Z,47.15
2019-03-08T02:18:31.611Z,48.68
2019-03-08T02:21:06.802Z,49.80
2019-03-08T02:23:29.830Z,53.65
2019-03-08T02:25:58.105Z,68.33
2019-03-08T02:28:26.414Z,48.85
2019-03-08T02:30:54.701Z,64.17
2019-03-08T02:33:23.070Z,54.27
2019-03-08T02:35:51.405Z,61.40
2019-03-08T02:38:19.750Z,53.55
2019-03-08T02:40:48.011Z,65.62
2019-03-08T02:43:17.621Z,46.88
2019-03-08T02:45:45.988Z,50.80
2019-03-08T02:48:14.310Z,43.17
2019-03-08T02:50:42.682Z,44.13
2019-03-08T02:53:10.990Z,57.38
2019-03-08T02:55:39.305Z,65.00
2019-03-08T02:58:09.192Z,50.50
2019-03-08T03:00:40.719Z,53.48
2019-03-08T03:03:09.086Z,55.23
2019-03-08T03:05:37.357Z,50.52
2019-03-08T03:08:05.823Z,50.17
2019-03-08T03:10:34.095Z,51.25
2019-03-08T03:13:02.375Z,48.15
2019-03-08T03:15:30.624Z,54.13
2019-03-08T03:17:58.910Z,53.40
2019-03-08T03:20:27.176Z,54.58
2019-03-08T03:22:55.824Z,49.15
2019-03-08T03:25:24.057Z,41.15
2019-03-08T03:27:52.331Z,39.10
2019-03-08T03:30:20.884Z,45.15
2019-03-08T03:32:49.221Z,47.15
2019-03-08T03:35:17.527Z,50.90
2019-03-08T03:37:46.163Z,53.08
2019-03-08T03:40:16.066Z,53.45
2019-03-08T03:42:44.333Z,52.53
2019-03-08T03:45:14.453Z,40.35
2019-03-08T03:47:42.707Z,46.25
2019-03-08T03:50:12.134Z,58.20
2019-03-08T03:52:40.688Z,55.28
2019-03-08T03:55:11.824Z,45.85
2019-03-08T03:57:40.100Z,54.88
2019-03-08T04:00:11.845Z,51.18
2019-03-08T04:02:40.263Z,47.33
2019-03-08T04:05:08.943Z,54.03
2019-03-08T04:07:37.259Z,56.90
2019-03-08T04:10:08.709Z,45.30
2019-03-08T04:12:36.966Z,46.83
2019-03-08T04:15:07.982Z,48.85
2019-03-08T04:17:36.241Z,50.03
2019-03-08T04:20:07.126Z,42.80
2019-03-08T04:22:35.398Z,55.25
2019-03-08T04:25:04.691Z,47.60
2019-03-08T04:27:32.947Z,45.88
2019-03-08T04:30:01.296Z,44.03
2019-03-08T04:32:29.706Z,43.20
2019-03-08T04:34:58.280Z,49.20
2019-03-08T04:37:26.543Z,47.73
2019-03-08T04:39:54.809Z,55.25
2019-03-08T04:42:23.127Z,53.83
2019-03-08T04:44:51.374Z,43.48
2019-03-08T04:47:19.654Z,44.58
2019-03-08T04:49:48.273Z,50.52
2019-03-08T04:52:16.625Z,52.73
2019-03-08T04:54:44.973Z,46.28
2019-03-08T04:57:16.142Z,49.85
2019-03-08T04:59:44.504Z,47.83
2019-03-08T05:02:12.812Z,46.90
2019-03-08T05:04:41.271Z,57.95
2019-03-08T05:07:23.061Z,42.73
2019-03-08T05:09:51.339Z,49.48
2019-03-08T05:12:19.770Z,46.35
2019-03-08T05:14:48.076Z,44.23
2019-03-08T05:17:18.142Z,49.38
2019-03-08T05:19:46.485Z,45.48
2019-03-08T05:22:14.751Z,53.60
2019-03-08T05:24:43.020Z,37.60
2019-03-08T05:27:11.356Z,49.08
2019-03-08T05:29:39.619Z,37.08
2019-03-08T05:32:08.286Z,44.53
2019-03-08T05:34:36.622Z,31.55
2019-03-08T05:37:04.879Z,33.60
2019-03-08T05:39:33.137Z,33.25
2019-03-08T05:42:01.603Z,33.65
2019-03-08T05:44:29.866Z,28.20
2019-03-08T05:46:58.495Z,27.17
2019-03-08T05:49:26.798Z,25.95
2019-03-08T05:51:55.075Z,41.75
2019-03-08T05:54:23.422Z,23.42
2019-03-08T05:56:51.697Z,30.52
2019-03-08T05:59:19.965Z,29.50
2019-03-08T06:01:48.208Z,24.85
2019-03-08T06:04:16.462Z,28.42
2019-03-08T06:06:44.708Z,28.60
2019-03-08T06:09:12.958Z,41.10
2019-03-08T06:11:41.218Z,33.50
2019-03-08T06:14:09.709Z,36.70
2019-03-08T06:16:38.091Z,35.45
2019-03-08T06:25:43.018Z,34.90
2019-03-08T06:28:11.376Z,43.60
2019-03-08T06:30:39.699Z,38.45
2019-03-08T06:33:07.999Z,41.95
2019-03-08T06:35:36.287Z,35.05
2019-03-08T06:38:04.640Z,36.55
2019-03-08T06:40:32.958Z,40.03
2019-03-08T06:43:01.211Z,33.05
2019-03-08T06:45:29.788Z,35.13
2019-03-08T06:47:58.105Z,35.92
2019-03-08T06:50:26.443Z,35.35
2019-03-08T06:52:54.735Z,39.60
2019-03-08T06:55:23.013Z,42.58
2019-03-08T06:57:54.653Z,38.50
2019-03-08T07:00:24.939Z,37.48
2019-03-08T07:02:55.822Z,41.53
2019-03-08T07:05:24.229Z,30.35
2019-03-08T07:07:52.577Z,32.80
2019-03-08T07:10:20.914Z,42.80
2019-03-08T07:12:49.296Z,40.40
2019-03-08T07:15:18.023Z,40.78
2019-03-08T07:17:46.329Z,34.10
2019-03-08T07:20:16.284Z,29.72
2019-03-08T07:22:46.343Z,36.53
2019-03-08T07:25:16.334Z,31.25
2019-03-08T07:27:46.299Z,34.90
2019-03-08T07:30:16.239Z,36.48
2019-03-08T07:32:46.199Z,32.48
2019-03-08T07:35:16.111Z,26.62
2019-03-08T07:37:46.047Z,35.52
2019-03-08T07:40:15.977Z,20.27
2019-03-08T07:42:46.282Z,27.20
2019-03-08T07:45:16.199Z,29.92
2019-03-08T07:47:46.163Z,22.22
2019-03-08T07:50:16.070Z,25.85
2019-03-08T07:52:46.062Z,32.40
2019-03-08T07:55:15.971Z,36.50
2019-03-08T07:57:45.870Z,30.30
2019-03-08T08:00:17.114Z,31.23
2019-03-08T08:02:47.065Z,28.30
2019-03-08T08:05:17.071Z,29.80
2019-03-08T08:07:47.075Z,25.30
2019-03-08T08:10:17.080Z,40.43
2019-03-08T08:12:47.150Z,35.08
2019-03-08T08:15:17.022Z,35.63
2019-03-08T08:17:47.172Z,34.58
2019-03-08T08:20:17.078Z,29.25
2019-03-08T08:22:46.998Z,27.17
2019-03-08T08:25:42.235Z,33.73
2019-03-08T08:28:12.227Z,30.95
2019-03-08T08:30:42.328Z,30.40
2019-03-08T08:33:12.290Z,32.20
2019-03-08T08:35:42.309Z,37.67
2019-03-08T08:38:12.286Z,35.43
2019-03-08T08:40:42.183Z,34.43
2019-03-08T08:43:12.097Z,31.27
2019-03-08T08:45:42.019Z,34.38
2019-03-08T08:48:11.923Z,25.85
2019-03-08T08:50:41.868Z,33.67
2019-03-08T08:53:11.784Z,32.15
2019-03-08T08:55:43.545Z,32.17
2019-03-08T08:58:13.330Z,31.07
2019-03-08T09:00:43.246Z,34.58
2019-03-08T09:03:13.202Z,36.17
2019-03-08T09:05:43.131Z,35.38
2019-03-08T09:08:13.055Z,38.88
2019-03-08T09:10:43.123Z,22.40
2019-03-08T09:13:13.066Z,22.67
2019-03-08T09:15:43.104Z,20.37
2019-03-08T09:18:13.107Z,21.40
2019-03-08T09:20:43.005Z,18.00
2019-03-08T09:23:12.912Z,14.40
2019-03-08T09:25:45.417Z,21.10
2019-03-08T09:28:15.307Z,16.37
2019-03-08T09:30:45.246Z,24.82
2019-03-08T09:33:15.272Z,32.30
2019-03-08T09:35:45.195Z,32.35
2019-03-08T09:38:15.187Z,28.80
2019-03-08T09:40:45.173Z,31.50
2019-03-08T09:43:15.143Z,31.73
2019-03-08T09:45:45.031Z,22.77
2019-03-08T09:48:15.023Z,29.40
2019-03-08T09:50:45.118Z,29.30
2019-03-08T09:53:15.010Z,29.40
2019-03-08T09:55:44.982Z,24.72
2019-03-08T09:58:14.945Z,24.55
2019-03-08T10:00:44.923Z,26.35
2019-03-08T10:03:15.069Z,24.67
2019-03-08T10:05:44.979Z,25.30
2019-03-08T10:08:14.979Z,22.48
2019-03-08T10:10:44.996Z,32.40
2019-03-08T10:13:14.975Z,30.77
2019-03-08T10:15:44.996Z,28.20
2019-03-08T10:18:15.001Z,19.98
2019-03-08T10:21:00.527Z,29.12
2019-03-08T10:25:59.811Z,23.55
2019-03-08T10:28:30.054Z,27.95
2019-03-08T10:31:00.405Z,25.30
2019-03-08T10:33:30.310Z,26.33
2019-03-08T10:36:00.191Z,20.32
2019-03-08T10:38:30.147Z,21.25
2019-03-08T10:41:01.059Z,19.98
2019-03-08T10:43:30.999Z,20.85
2019-03-08T10:46:00.976Z,21.62
2019-03-08T10:48:30.997Z,21.10
2019-03-08T10:51:00.931Z,20.85
2019-03-08T10:53:31.133Z,26.48
2019-03-08T10:56:01.020Z,24.30
2019-03-08T10:58:30.909Z,20.80
2019-03-08T11:01:00.909Z,24.47
2019-03-08T11:03:30.838Z,23.77
2019-03-08T11:06:00.810Z,20.95
2019-03-08T11:08:30.727Z,27.50
2019-03-08T11:11:06.351Z,30.65
2019-03-08T11:13:32.438Z,23.45
2019-03-08T11:16:02.381Z,23.85
2019-03-08T11:18:32.289Z,26.07
2019-03-08T11:21:02.434Z,16.67
2019-03-08T11:23:32.375Z,32.33
2019-03-08T11:26:02.283Z,29.37
2019-03-08T11:28:32.290Z,33.23
2019-03-08T11:31:02.203Z,26.05
2019-03-08T11:33:32.427Z,21.85
2019-03-08T11:36:02.396Z,32.80
2019-03-08T11:38:32.320Z,28.80
2019-03-08T11:41:02.322Z,23.90
2019-03-08T11:43:32.323Z,22.85
2019-03-08T11:46:02.575Z,25.62
2019-03-08T11:48:32.510Z,24.85
2019-03-08T11:51:04.956Z,24.85
2019-03-08T11:53:34.974Z,24.30
2019-03-08T11:56:04.948Z,21.87
2019-03-08T11:58:34.827Z,25.50
2019-03-08T12:01:13.336Z,26.27
2019-03-08T12:03:43.305Z,18.45
2019-03-08T12:06:13.210Z,19.87
2019-03-08T12:08:43.090Z,21.40
2019-03-08T12:11:16.533Z,29.60
2019-03-08T12:13:46.618Z,18.52
2019-03-08T12:16:49.709Z,22.20
2019-03-08T12:19:19.589Z,20.35
2019-03-08T12:21:49.495Z,16.75
2019-03-08T12:24:19.403Z,26.97
2019-03-08T12:26:49.318Z,19.42
2019-03-08T12:29:19.207Z,23.47
2019-03-08T12:31:49.082Z,21.87
2019-03-08T12:34:19.063Z,25.82
2019-03-08T12:36:48.999Z,21.60
2019-03-08T12:39:18.945Z,26.33
2019-03-08T12:41:48.842Z,24.65
2019-03-08T12:44:19.033Z,19.73
2019-03-08T12:46:48.949Z,23.80
2019-03-08T12:49:18.839Z,18.87
2019-03-08T12:51:48.893Z,25.05
2019-03-08T12:54:19.581Z,19.80
2019-03-08T12:56:49.840Z,18.90
2019-03-08T12:59:19.751Z,14.30
2019-03-08T13:01:49.715Z,18.45
2019-03-08T13:04:19.642Z,19.55
2019-03-08T13:06:49.576Z,18.30
2019-03-08T13:09:19.877Z,13.80
2019-03-08T13:11:48.142Z,22.42
2019-03-08T13:14:16.400Z,22.17
2019-03-08T13:16:44.689Z,15.83
2019-03-08T13:19:12.958Z,19.20
2019-03-08T13:21:41.249Z,18.30
2019-03-08T13:24:09.703Z,20.52
2019-03-08T13:26:37.991Z,18.32
2019-03-08T13:29:06.319Z,19.80
2019-03-08T13:31:34.657Z,19.37
2019-03-08T13:34:02.998Z,20.45
2019-03-08T13:36:31.310Z,15.95
2019-03-08T13:38:59.591Z,20.30
2019-03-08T13:41:27.906Z,16.90
2019-03-08T13:43:56.165Z,15.00
2019-03-08T13:46:24.599Z,15.72
2019-03-08T14:14:12.906Z,16.20
2019-03-08T14:16:41.166Z,19.17
2019-03-08T14:19:09.420Z,15.83
2019-03-08T14:21:37.784Z,15.38
2019-03-08T14:24:06.479Z,13.38
2019-03-08T14:26:40.018Z,16.62
2019-03-08T14:29:08.102Z,18.65
2019-03-08T14:31:38.510Z,11.60
2019-03-08T14:34:10.696Z,18.20
2019-03-08T14:36:39.090Z,12.60
2019-03-08T14:39:07.956Z,14.47
2019-03-08T14:41:38.762Z,12.98
2019-03-08T14:44:08.965Z,13.68
2019-03-08T14:46:38.938Z,11.60
2019-03-08T14:49:07.799Z,13.80
2019-03-08T14:51:36.250Z,14.47
2019-03-08T14:54:06.069Z,16.00
2019-03-08T14:56:35.841Z,13.55
2019-03-08T14:59:04.648Z,12.55
2019-03-08T15:01:33.015Z,13.25
2019-03-08T15:04:01.301Z,15.20
2019-03-08T15:06:35.432Z,14.73
2019-03-08T15:09:10.842Z,15.70
2019-03-08T15:11:39.806Z,12.58
2019-03-08T15:14:08.087Z,16.02
2019-03-08T15:16:39.218Z,17.65
2019-03-08T15:19:16.957Z,15.10
2019-03-08T15:21:48.589Z,14.05
2019-03-08T15:24:15.412Z,20.43
2019-03-08T15:26:48.360Z,13.68
2019-03-08T15:29:16.675Z,13.05
2019-03-08T15:31:45.019Z,18.15
2019-03-08T15:34:14.529Z,14.53
2019-03-08T15:36:43.335Z,15.60
2019-03-08T15:39:11.703Z,16.70
2019-03-08T15:41:40.080Z,17.80
2019-03-08T15:44:10.053Z,19.20
2019-03-08T15:46:38.494Z,18.27
2019-03-08T15:49:06.757Z,12.55
2019-03-08T15:51:34.995Z,15.78
2019-03-08T15:54:03.959Z,21.68
2019-03-08T15:56:32.556Z,18.77
2019-03-08T16:02:12.781Z,18.10
2019-03-08T16:04:41.141Z,17.20
2019-03-08T16:07:09.970Z,18.90
2019-03-08T16:09:38.253Z,18.52
2019-03-08T16:12:06.549Z,20.55
2019-03-08T16:14:34.790Z,21.33
2019-03-08T16:17:03.063Z,26.37
2019-03-08T16:19:31.622Z,18.42
2019-03-08T16:22:00.003Z,14.07
2019-03-08T16:27:03.978Z,17.52
2019-03-08T16:29:32.295Z,18.82
2019-03-08T16:32:02.455Z,12.70
2019-03-08T16:34:30.884Z,19.07
2019-03-08T16:37:00.819Z,21.25
2019-03-08T16:39:30.800Z,20.17
2019-03-08T16:42:00.741Z,19.37
2019-03-08T16:44:30.784Z,24.00
2019-03-08T16:47:00.665Z,17.65
2019-03-08T16:49:30.589Z,20.45
2019-03-08T16:52:00.521Z,18.77
2019-03-08T16:54:30.500Z,19.85
2019-03-08T16:57:00.395Z,17.45
2019-03-08T16:59:30.293Z,12.82
2019-03-08T17:02:00.194Z,14.10
2019-03-08T17:04:30.083Z,14.90
2019-03-08T17:06:59.962Z,13.68
2019-03-08T17:09:29.890Z,23.25
2019-03-08T17:11:59.900Z,12.28
2019-03-08T17:14:29.793Z,15.60
2019-03-08T17:16:59.703Z,9.53
2019-03-08T17:19:30.059Z,20.30
2019-03-08T17:21:59.969Z,13.50
2019-03-08T17:24:29.863Z,22.77
2019-03-08T17:26:59.755Z,19.87
2019-03-08T17:29:29.653Z,14.20
2019-03-08T17:31:59.914Z,16.15
2019-03-08T17:34:29.794Z,19.40
2019-03-08T17:36:59.678Z,20.97
2019-03-08T17:39:29.570Z,18.87
2019-03-08T17:41:59.464Z,12.40
2019-03-08T17:44:29.610Z,17.55
2019-03-08T17:46:59.494Z,17.05
2019-03-08T17:49:29.388Z,17.05
2019-03-08T17:51:59.282Z,17.57
2019-03-08T17:54:29.187Z,15.35
2019-03-08T17:56:59.082Z,16.27
2019-03-08T17:59:28.977Z,23.40
2019-03-08T18:01:58.925Z,22.27
2019-03-08T18:04:28.904Z,22.45
2019-03-08T18:06:58.807Z,22.82
2019-03-08T18:09:28.715Z,29.25
2019-03-08T18:11:58.613Z,23.95
2019-03-08T18:14:28.540Z,16.20
2019-03-08T18:16:58.490Z,25.08
2019-03-08T18:19:28.390Z,19.35
2019-03-08T18:21:58.384Z,25.75
2019-03-08T18:24:28.340Z,27.20
2019-03-08T18:26:58.240Z,21.17
2019-03-08T18:29:28.128Z,19.02
2019-03-08T18:31:58.033Z,27.02
2019-03-08T18:34:27.942Z,34.67
2019-03-08T18:36:57.825Z,26.80
2019-03-08T18:39:27.708Z,24.87
2019-03-08T18:41:57.648Z,24.65
2019-03-08T18:44:27.903Z,27.50
2019-03-08T18:46:57.788Z,28.50
2019-03-08T18:49:27.686Z,32.78
2019-03-08T18:51:57.610Z,26.50
2019-03-08T18:54:27.492Z,26.33
2019-03-08T18:56:57.482Z,29.72
2019-03-08T18:59:27.370Z,21.82
2019-03-08T19:01:59.999Z,27.85
2019-03-08T19:04:29.894Z,26.50
2019-03-08T19:06:59.806Z,27.32
2019-03-08T19:09:29.708Z,22.55
2019-03-08T19:11:59.630Z,25.80
2019-03-08T19:14:29.532Z,27.77
2019-03-08T19:16:59.423Z,24.45
2019-03-08T19:19:29.308Z,30.17
2019-03-08T19:21:59.214Z,24.82
2019-03-08T19:24:29.107Z,31.07
2019-03-08T19:26:59.027Z,30.72
2019-03-08T19:29:28.926Z,27.17
2019-03-08T19:31:59.007Z,27.77
2019-03-08T19:34:28.946Z,28.75
2019-03-08T19:36:58.851Z,25.43
2019-03-08T19:39:28.749Z,24.12
2019-03-08T19:41:58.718Z,27.85
2019-03-08T19:44:28.595Z,24.50
2019-03-08T19:46:58.495Z,32.00
2019-03-08T19:49:28.505Z,31.65
2019-03-08T19:51:58.413Z,29.23
2019-03-08T19:54:28.361Z,28.25
2019-03-08T19:56:58.316Z,26.42
2019-03-08T19:59:28.252Z,26.85
2019-03-08T20:01:58.162Z,30.97
2019-03-08T20:04:28.131Z,31.05
2019-03-08T20:06:58.036Z,26.90
2019-03-08T20:09:27.907Z,32.53
2019-03-08T20:11:57.827Z,31.12
2019-03-08T20:14:27.701Z,28.10
2019-03-08T20:16:57.614Z,30.32
2019-03-08T20:19:27.514Z,28.55
2019-03-08T20:21:57.423Z,28.20
2019-03-08T20:24:27.285Z,23.25
2019-03-08T20:26:57.206Z,29.32
2019-03-08T20:29:27.167Z,16.82
2019-03-08T20:31:57.530Z,21.85
2019-03-08T20:34:27.414Z,17.35
2019-03-08T20:36:57.295Z,18.85
2019-03-08T20:39:27.204Z,13.28
2019-03-08T20:41:57.067Z,8.30
2019-03-08T20:44:27.155Z,6.75
2019-03-08T20:46:57.127Z,6.78
2019-03-08T20:49:25.386Z,7.75
2019-03-08T20:51:53.630Z,6.72
2019-03-08T20:54:22.330Z,6.25
2019-03-08T20:56:50.963Z,6.08
2019-03-08T20:59:19.202Z,8.48
2019-03-08T21:01:47.471Z,6.05
2019-03-08T21:04:15.723Z,7.70
2019-03-08T21:06:43.955Z,5.92
2019-03-08T21:09:12.184Z,5.25
2019-03-08T21:11:40.522Z,8.75
2019-03-08T21:14:08.767Z,8.28
2019-03-08T21:16:37.522Z,6.30
2019-03-08T21:19:06.437Z,6.97
2019-03-08T21:21:34.782Z,10.38
2019-03-08T21:24:03.098Z,6.22
2019-03-08T21:26:31.413Z,6.85
2019-03-08T21:28:59.686Z,11.43
2019-03-08T21:31:27.961Z,7.80
2019-03-08T21:33:56.209Z,9.13
2019-03-08T21:36:24.566Z,10.28
2019-03-08T21:38:53.089Z,9.98
2019-03-08T21:41:21.354Z,12.07
2019-03-08T21:43:49.626Z,14.03
2019-03-08T21:46:17.924Z,13.80
2019-03-08T21:48:46.229Z,17.05
2019-03-08T21:51:14.536Z,13.70
2019-03-08T21:53:42.789Z,14.47
2019-03-08T21:56:11.059Z,12.33
2019-03-08T21:58:39.292Z,8.25
2019-03-08T22:01:07.564Z,9.58
2019-03-08T22:03:35.851Z,17.55
2019-03-08T22:06:04.502Z,10.13
2019-03-08T22:08:32.892Z,9.88
2019-03-08T22:11:02.832Z,18.48
2019-03-08T22:13:31.074Z,11.60
2019-03-08T22:15:59.332Z,13.13
2019-03-08T22:18:27.689Z,12.28
2019-03-08T22:20:55.923Z,11.60
2019-03-08T22:23:24.166Z,11.10
2019-03-08T22:25:52.430Z,12.85
2019-03-08T22:28:20.710Z,12.45
2019-03-08T22:30:49.069Z,10.80
2019-03-08T22:33:17.504Z,15.70
2019-03-08T22:35:45.778Z,15.35
2019-03-08T22:38:14.098Z,19.23
2019-03-08T22:40:42.349Z,11.45
2019-03-08T22:43:10.617Z,12.03
2019-03-08T22:45:38.863Z,12.58
2019-03-08T22:48:07.447Z,10.68
2019-03-08T22:50:35.741Z,14.28
2019-03-08T22:53:05.679Z,10.20
2019-03-08T22:55:34.100Z,9.45
2019-03-08T22:58:02.455Z,12.68
2019-03-08T23:03:58.286Z,8.23
2019-03-08T23:06:39.388Z,8.70
2019-03-08T23:09:08.293Z,17.10
2019-03-08T23:15:09.186Z,6.78
2019-03-08T23:17:37.431Z,4.92
2019-03-08T23:20:07.979Z,6.15
2019-03-08T23:22:36.251Z,8.95
2019-03-08T23:25:05.052Z,9.80
2019-03-08T23:27:35.019Z,7.72
2019-03-08T23:30:04.818Z,13.53
2019-03-08T23:32:34.800Z,10.82
2019-03-08T23:35:03.055Z,10.72
2019-03-08T23:37:31.321Z,6.92
2019-03-08T23:39:59.574Z,10.75
2019-03-08T23:42:28.231Z,8.28
2019-03-08T23:44:56.493Z,11.85
2019-03-08T23:47:24.781Z,12.10
2019-03-08T23:49:53.093Z,9.53
2019-03-08T23:52:21.435Z,15.05
2019-03-08T23:54:49.768Z,10.85
2019-03-08T23:57:18.038Z,13.15
2019-03-08T23:59:46.314Z,12.28
